Terminal Aerodrome Forecast
Issued by NWS

Home | Current Version | Previous Version | Text Only | Print | Product List | Glossary On
Versions: 1 2 3 4 5 6 7 8 9 10 11 12 13 14 15 16 17 18 19 20 21 22 23 24 25 26 27 28 29 30 31
000
FTUS45 KGJT 112333
TAFMTJ
TAF
KMTJ 112333Z 1200/1224 13015KT P6SM VCSH FEW080 SCT110 BKN150
     FM120030 13010KT P6SM VCTS SCT100CB BKN150
     FM120600 14006KT P6SM SCT110
     FM121200 14005KT P6SM SCT200
     FM121900 33007KT P6SM SCT090 SCT150=

USA.gov is the U.S. government's official web portal to all federal, state and local government web resources and services.